createdAt,value
2019-03-05T00:02:16.038Z,12.63
2019-03-05T00:05:07.184Z,11.33
2019-03-05T00:07:58.574Z,11.77
2019-03-05T00:10:48.912Z,13.27
2019-03-05T00:13:39.031Z,13.77
2019-03-05T00:16:29.435Z,10.90
2019-03-05T00:19:19.768Z,13.60
2019-03-05T00:22:11.272Z,13.77
2019-03-05T00:25:13.832Z,12.53
2019-03-05T00:28:17.183Z,13.10
2019-03-05T00:31:25.127Z,16.57
2019-03-05T00:35:06.277Z,11.80
2019-03-05T00:38:05.427Z,16.37
2019-03-05T00:41:26.778Z,14.30
2019-03-05T00:44:34.909Z,14.97
2019-03-05T00:47:55.883Z,12.73
2019-03-05T00:51:07.855Z,13.03
2019-03-05T00:54:22.818Z,12.03
2019-03-05T00:58:05.354Z,11.27
2019-03-05T01:01:25.990Z,12.00
2019-03-05T01:04:56.575Z,11.00
2019-03-05T01:07:46.783Z,15.53
2019-03-05T01:10:37.271Z,13.63
2019-03-05T01:13:27.834Z,14.40
2019-03-05T01:16:20.387Z,14.07
2019-03-05T01:19:10.670Z,12.27
2019-03-05T01:22:02.091Z,12.17
2019-03-05T01:24:52.174Z,12.80
2019-03-05T01:27:42.423Z,14.57
2019-03-05T01:31:08.415Z,13.33
2019-03-05T01:34:23.629Z,13.73
2019-03-05T01:37:13.986Z,13.43
2019-03-05T01:40:32.586Z,14.67
2019-03-05T01:43:22.906Z,13.13
2019-03-05T01:46:13.415Z,13.73
2019-03-05T01:49:04.058Z,14.80
2019-03-05T01:51:54.295Z,14.67
2019-03-05T01:54:44.569Z,15.43
2019-03-05T01:57:34.620Z,16.90
2019-03-05T02:00:25.099Z,14.93
2019-03-05T02:03:15.569Z,14.10
2019-03-05T02:06:05.885Z,20.17
2019-03-05T02:08:56.363Z,16.30
2019-03-05T02:11:46.854Z,17.27
2019-03-05T02:14:37.433Z,18.53
2019-03-05T02:17:27.889Z,18.10
2019-03-05T02:20:25.737Z,15.23
2019-03-05T02:23:37.987Z,16.77
2019-03-05T02:26:51.281Z,19.13
2019-03-05T02:29:54.321Z,13.07
2019-03-05T02:33:33.893Z,14.57
2019-03-05T02:36:54.100Z,17.20
2019-03-05T02:40:22.717Z,18.93
2019-03-05T02:43:40.933Z,18.37
2019-03-05T02:46:47.018Z,13.53
2019-03-05T02:50:04.664Z,13.33
2019-03-05T02:53:48.334Z,17.17
2019-03-05T02:56:59.421Z,16.30
2019-03-05T02:59:50.593Z,16.47
2019-03-05T03:02:58.276Z,17.23
2019-03-05T03:06:07.690Z,17.03
2019-03-05T03:09:39.656Z,16.77
2019-03-05T03:12:31.113Z,19.67
2019-03-05T03:15:21.550Z,18.27
2019-03-05T03:18:12.772Z,19.73
2019-03-05T03:21:03.399Z,18.30
2019-03-05T03:23:53.739Z,20.67
2019-03-05T03:26:44.122Z,16.87
2019-03-05T03:29:37.128Z,15.33
2019-03-05T03:32:27.569Z,19.67
2019-03-05T03:35:17.950Z,21.07
2019-03-05T03:38:09.508Z,15.77
2019-03-05T03:41:00.735Z,15.53
2019-03-05T03:43:51.207Z,16.40
2019-03-05T03:46:41.618Z,17.13
2019-03-05T03:49:31.981Z,18.67
2019-03-05T03:52:22.335Z,17.77
2019-03-05T03:55:13.609Z,19.93
2019-03-05T03:58:04.074Z,16.57
2019-03-05T04:00:54.545Z,17.50
2019-03-05T04:03:45.101Z,18.13
2019-03-05T04:06:35.607Z,19.97
2019-03-05T04:09:26.003Z,17.57
2019-03-05T04:12:16.035Z,19.37
2019-03-05T04:15:07.548Z,19.57
2019-03-05T04:17:57.610Z,16.90
2019-03-05T04:20:51.418Z,18.47
2019-03-05T04:23:42.298Z,22.57
2019-03-05T04:26:32.596Z,19.83
2019-03-05T04:29:22.781Z,17.83
2019-03-05T04:32:13.165Z,16.60
2019-03-05T04:35:03.712Z,18.17
2019-03-05T04:37:54.196Z,18.27
2019-03-05T04:40:44.668Z,18.77
2019-03-05T04:43:35.259Z,16.83
2019-03-05T04:46:40.121Z,21.07
2019-03-05T04:49:44.041Z,16.10
2019-03-05T04:52:36.523Z,18.47
2019-03-05T04:55:29.136Z,19.80
2019-03-05T04:58:20.372Z,18.40
2019-03-05T05:01:10.725Z,18.30
2019-03-05T05:04:01.050Z,20.33
2019-03-05T05:06:52.284Z,17.97
2019-03-05T05:09:42.644Z,20.43
2019-03-05T05:12:34.011Z,19.10
2019-03-05T05:15:32.567Z,20.17
2019-03-05T05:18:22.899Z,17.93
2019-03-05T05:21:13.211Z,20.00
2019-03-05T05:24:03.628Z,16.93
2019-03-05T05:26:53.639Z,18.53
2019-03-05T05:29:43.963Z,15.07
2019-03-05T05:32:35.399Z,16.07
2019-03-05T05:35:25.879Z,15.57
2019-03-05T05:38:16.479Z,17.43
2019-03-05T05:41:07.397Z,17.73
2019-03-05T05:43:58.577Z,16.33
2019-03-05T05:46:48.854Z,13.37
2019-03-05T05:49:39.583Z,14.17
2019-03-05T05:52:30.321Z,14.20
2019-03-05T05:55:20.702Z,14.97
2019-03-05T05:58:11.066Z,15.70
2019-03-05T06:01:03.739Z,13.97
2019-03-05T06:03:54.258Z,12.60
2019-03-05T06:06:46.255Z,16.00
2019-03-05T06:09:36.651Z,11.90
2019-03-05T06:12:26.891Z,12.17
2019-03-05T06:15:17.772Z,11.43
2019-03-05T06:18:08.312Z,10.43
2019-03-05T06:20:58.945Z,12.73
2019-03-05T06:23:49.939Z,11.75
2019-03-05T06:26:40.913Z,11.45
2019-03-05T06:29:31.895Z,12.05
2019-03-05T06:32:22.844Z,10.05
2019-03-05T06:35:13.728Z,10.00
2019-03-05T06:38:04.778Z,8.80
2019-03-05T06:40:55.742Z,10.90
2019-03-05T06:43:46.348Z,10.75
2019-03-05T06:46:37.147Z,10.45
2019-03-05T06:49:27.942Z,12.00
2019-03-05T06:52:18.853Z,9.58
2019-03-05T06:55:10.854Z,10.18
2019-03-05T06:58:01.737Z,11.83
2019-03-05T07:00:52.772Z,13.50
2019-03-05T07:03:43.707Z,9.75
2019-03-05T07:06:52.136Z,12.20
2019-03-05T07:10:14.488Z,10.05
2019-03-05T07:13:20.051Z,12.28
2019-03-05T07:16:38.513Z,12.40
2019-03-05T07:19:57.272Z,12.13
2019-03-05T07:23:13.296Z,13.72
2019-03-05T07:26:04.416Z,11.05
2019-03-05T07:28:55.440Z,10.15
2019-03-05T07:31:46.398Z,9.33
2019-03-05T07:34:38.875Z,11.38
2019-03-05T07:37:29.606Z,11.20
2019-03-05T07:40:20.497Z,11.22
2019-03-05T07:43:11.595Z,11.43
2019-03-05T07:46:02.465Z,13.78
2019-03-05T07:48:53.899Z,13.25
2019-03-05T07:51:44.762Z,10.75
2019-03-05T07:54:35.769Z,12.25
2019-03-05T07:57:26.704Z,11.38
2019-03-05T08:00:19.819Z,12.37
2019-03-05T08:03:10.738Z,11.68
2019-03-05T08:06:01.832Z,9.98
2019-03-05T08:09:42.112Z,10.68
2019-03-05T08:13:25.786Z,10.10
2019-03-05T08:16:20.826Z,13.03
2019-03-05T08:19:11.823Z,11.18
2019-03-05T08:22:02.676Z,12.03
2019-03-05T08:24:53.674Z,12.73
2019-03-05T08:27:45.559Z,12.33
2019-03-05T08:30:36.598Z,12.10
2019-03-05T08:33:27.480Z,13.78
2019-03-05T08:36:18.481Z,12.03
2019-03-05T08:39:08.902Z,12.70
2019-03-05T08:41:59.203Z,16.50
2019-03-05T08:44:50.766Z,13.40
2019-03-05T08:47:41.147Z,12.43
2019-03-05T08:50:32.305Z,12.33
2019-03-05T08:53:22.677Z,15.27
2019-03-05T08:56:13.056Z,13.47
2019-03-05T08:59:03.246Z,13.03
2019-03-05T09:01:54.487Z,13.27
2019-03-05T09:04:44.947Z,12.53
2019-03-05T09:07:35.293Z,13.73
2019-03-05T09:10:26.701Z,14.97
2019-03-05T09:13:16.705Z,13.93
2019-03-05T09:16:06.971Z,12.60
2019-03-05T09:18:57.409Z,14.83
2019-03-05T09:21:49.337Z,13.17
2019-03-05T09:24:39.821Z,14.60
2019-03-05T09:27:30.482Z,12.67
2019-03-05T09:30:20.820Z,15.17
2019-03-05T09:33:14.019Z,13.30
2019-03-05T09:36:04.074Z,15.73
2019-03-05T09:38:54.323Z,16.93
2019-03-05T09:41:44.841Z,14.73
2019-03-05T09:44:35.274Z,17.17
2019-03-05T09:47:25.489Z,17.53
2019-03-05T09:50:17.078Z,15.50
2019-03-05T09:53:07.195Z,18.83
2019-03-05T09:55:57.657Z,14.60
2019-03-05T09:58:47.971Z,13.40
2019-03-05T10:01:38.136Z,13.20
2019-03-05T10:04:28.386Z,13.27
2019-03-05T10:07:19.462Z,11.97
2019-03-05T10:10:11.871Z,13.60
2019-03-05T10:13:04.299Z,13.83
2019-03-05T10:15:54.697Z,12.73
2019-03-05T10:18:45.145Z,13.33
2019-03-05T10:21:45.907Z,12.53
2019-03-05T10:24:28.616Z,12.40
2019-03-05T10:27:19.212Z,9.23
2019-03-05T10:30:24.424Z,10.13
2019-03-05T10:33:09.835Z,11.60
2019-03-05T10:35:59.982Z,12.40
2019-03-05T10:38:57.426Z,8.63
2019-03-05T10:41:43.013Z,11.77
2019-03-05T10:44:35.179Z,12.43
2019-03-05T10:47:25.554Z,11.73
2019-03-05T10:50:18.387Z,7.43
2019-03-05T10:53:08.560Z,6.23
2019-03-05T10:55:58.991Z,6.87
2019-03-05T10:58:49.847Z,6.80
2019-03-05T11:01:40.297Z,8.93
2019-03-05T11:04:30.624Z,8.83
2019-03-05T11:07:21.053Z,7.27
2019-03-05T11:10:11.825Z,7.07
2019-03-05T11:13:02.350Z,8.53
2019-03-05T11:15:54.783Z,7.43
2019-03-05T11:18:45.119Z,7.70
2019-03-05T11:21:35.621Z,6.83
2019-03-05T11:24:25.905Z,6.73
2019-03-05T11:27:16.343Z,7.17
2019-03-05T11:30:07.773Z,8.00
2019-03-05T11:32:58.176Z,8.87
2019-03-05T11:35:49.696Z,8.87
2019-03-05T11:38:40.348Z,7.73
2019-03-05T11:41:30.755Z,8.47
2019-03-05T11:44:21.176Z,8.00
2019-03-05T11:47:11.169Z,7.73
2019-03-05T11:50:01.494Z,10.07
2019-03-05T11:52:51.894Z,7.90
2019-03-05T11:55:42.503Z,8.43
2019-03-05T11:58:32.897Z,7.90
2019-03-05T12:01:33.803Z,8.10
2019-03-05T12:04:23.852Z,8.30
2019-03-05T12:07:14.185Z,8.83
2019-03-05T12:10:04.617Z,9.47
2019-03-05T12:12:55.095Z,7.67
2019-03-05T12:15:46.404Z,8.63
2019-03-05T12:18:36.888Z,8.60
2019-03-05T12:21:27.289Z,8.13
2019-03-05T12:24:20.058Z,8.47
2019-03-05T12:27:09.824Z,8.20
2019-03-05T12:30:00.439Z,8.33
2019-03-05T12:32:51.006Z,10.53
2019-03-05T12:35:41.490Z,9.33
2019-03-05T12:38:31.803Z,7.57
2019-03-05T12:41:22.109Z,9.63
2019-03-05T12:44:12.324Z,9.07
2019-03-05T12:47:02.626Z,7.67
2019-03-05T12:49:53.406Z,8.13
2019-03-05T12:52:43.950Z,7.10
2019-03-05T12:55:34.368Z,8.73
2019-03-05T12:58:24.844Z,8.80
2019-03-05T13:01:15.253Z,9.50
2019-03-05T13:04:06.339Z,8.40
2019-03-05T13:06:56.882Z,8.47
2019-03-05T13:09:47.637Z,8.17
2019-03-05T13:12:40.059Z,8.07
2019-03-05T13:15:30.458Z,8.73
2019-03-05T13:18:20.619Z,7.87
2019-03-05T13:21:11.157Z,8.10
2019-03-05T13:24:01.449Z,8.80
2019-03-05T13:26:51.799Z,10.53
2019-03-05T13:29:42.120Z,8.57
2019-03-05T13:32:32.591Z,9.20
2019-03-05T13:35:25.335Z,9.50
2019-03-05T13:38:15.560Z,9.63
2019-03-05T13:41:05.905Z,8.13
2019-03-05T13:43:56.652Z,8.00
2019-03-05T13:46:47.135Z,9.27
2019-03-05T13:50:13.203Z,7.40
2019-03-05T13:53:25.460Z,7.97
2019-03-05T13:56:59.377Z,8.53
2019-03-05T13:59:50.101Z,7.83
2019-03-05T14:03:07.987Z,7.27
2019-03-05T14:06:51.527Z,7.80
2019-03-05T14:09:40.161Z,8.10
2019-03-05T14:12:30.171Z,8.07
2019-03-05T14:15:21.197Z,8.53
2019-03-05T14:18:12.801Z,9.07
2019-03-05T14:21:03.182Z,8.00
2019-03-05T14:23:53.188Z,9.10
2019-03-05T14:26:43.704Z,8.33
2019-03-05T14:29:34.133Z,9.33
2019-03-05T14:32:24.634Z,8.37
2019-03-05T14:35:20.207Z,9.27
2019-03-05T14:38:10.423Z,9.83
2019-03-05T14:41:00.588Z,10.17
2019-03-05T14:43:50.868Z,9.80
2019-03-05T14:46:41.292Z,8.93
2019-03-05T14:49:31.734Z,9.83
2019-03-05T14:52:21.992Z,9.80
2019-03-05T14:55:12.230Z,11.43
2019-03-05T14:58:02.305Z,10.50
2019-03-05T15:00:52.983Z,10.57
2019-03-05T15:03:43.308Z,11.17
2019-03-05T15:06:33.528Z,12.80
2019-03-05T15:09:23.673Z,11.40
2019-03-05T15:12:14.143Z,12.70
2019-03-05T15:15:04.724Z,12.97
2019-03-05T15:17:55.404Z,11.63
2019-03-05T15:20:45.723Z,11.30
2019-03-05T15:23:36.078Z,12.50
2019-03-05T15:26:26.393Z,12.47
2019-03-05T15:29:16.705Z,13.03
2019-03-05T15:32:07.090Z,13.33
2019-03-05T15:34:58.364Z,12.83
2019-03-05T15:37:49.018Z,12.67
2019-03-05T15:40:40.190Z,12.63
2019-03-05T15:43:30.351Z,13.77
2019-03-05T15:46:20.700Z,13.43
2019-03-05T15:49:11.222Z,13.50
2019-03-05T15:52:01.567Z,12.33
2019-03-05T15:54:51.924Z,14.80
2019-03-05T15:57:42.310Z,13.07
2019-03-05T16:00:32.633Z,12.03
2019-03-05T16:03:23.047Z,13.00
2019-03-05T16:06:14.044Z,11.20
2019-03-05T16:09:05.827Z,12.57
2019-03-05T16:11:56.976Z,11.77
2019-03-05T16:14:47.618Z,12.43
2019-03-05T16:17:38.010Z,11.43
2019-03-05T16:20:29.773Z,12.43
2019-03-05T16:23:20.256Z,12.53
2019-03-05T16:26:10.788Z,12.30
2019-03-05T16:29:01.397Z,12.97
2019-03-05T16:32:09.154Z,14.00
2019-03-05T16:35:26.727Z,11.10
2019-03-05T16:38:46.046Z,13.50
2019-03-05T16:41:57.452Z,11.73
2019-03-05T16:45:07.251Z,11.07
2019-03-05T16:48:12.996Z,10.93
2019-03-05T16:51:26.616Z,11.57
2019-03-05T16:54:36.221Z,14.10
2019-03-05T16:57:44.258Z,18.73
2019-03-05T17:00:59.785Z,13.87
2019-03-05T17:04:06.442Z,12.13
2019-03-05T17:07:10.393Z,11.20
2019-03-05T17:10:19.594Z,11.80
2019-03-05T17:13:09.782Z,11.20
2019-03-05T17:16:00.331Z,13.07
2019-03-05T17:18:50.705Z,11.57
2019-03-05T17:21:41.260Z,12.20
2019-03-05T17:24:31.519Z,11.87
2019-03-05T17:27:22.511Z,12.13
2019-03-05T17:30:16.500Z,10.27
2019-03-05T17:33:07.044Z,10.67
2019-03-05T17:35:57.412Z,10.03
2019-03-05T17:38:49.284Z,10.67
2019-03-05T17:41:39.631Z,12.93
2019-03-05T17:44:30.247Z,12.07
2019-03-05T17:47:20.651Z,11.07
2019-03-05T17:50:11.773Z,9.97
2019-03-05T17:53:02.129Z,11.53
2019-03-05T17:55:52.629Z,10.70
2019-03-05T17:58:43.004Z,11.60
2019-03-05T18:01:33.541Z,11.93
2019-03-05T18:04:24.783Z,11.20
2019-03-05T18:07:15.151Z,13.77
2019-03-05T18:10:05.849Z,10.73
2019-03-05T18:12:56.443Z,12.30
2019-03-05T18:15:46.683Z,12.93
2019-03-05T18:18:37.454Z,12.23
2019-03-05T18:21:27.743Z,11.70
2019-03-05T18:24:18.031Z,12.83
2019-03-05T18:27:08.895Z,18.60
2019-03-05T18:29:59.131Z,39.43
2019-03-05T18:32:49.602Z,14.43
2019-03-05T18:35:39.963Z,17.37
2019-03-05T18:38:30.311Z,12.77
2019-03-05T18:41:20.642Z,13.10
2019-03-05T18:44:11.053Z,12.03
2019-03-05T18:47:01.744Z,11.50
2019-03-05T18:49:52.145Z,10.63
2019-03-05T18:52:42.817Z,11.43
2019-03-05T18:55:33.086Z,10.90
2019-03-05T18:58:23.477Z,16.03
2019-03-05T19:01:14.000Z,11.97
2019-03-05T19:04:04.393Z,12.43
2019-03-05T19:06:54.553Z,14.17
2019-03-05T19:09:44.874Z,11.47
2019-03-05T19:12:34.995Z,11.80
2019-03-05T19:15:25.662Z,12.23
2019-03-05T19:18:16.114Z,12.67
2019-03-05T19:21:06.396Z,12.73
2019-03-05T19:23:56.454Z,11.87
2019-03-05T19:26:47.045Z,13.87
2019-03-05T19:29:37.579Z,12.40
2019-03-05T19:32:28.926Z,12.47
2019-03-05T19:35:19.158Z,11.90
2019-03-05T19:38:09.236Z,12.90
2019-03-05T19:40:59.473Z,11.33
2019-03-05T19:43:50.076Z,13.87
2019-03-05T19:46:40.378Z,12.97
2019-03-05T19:49:31.067Z,13.07
2019-03-05T19:52:21.445Z,12.13
2019-03-05T19:55:12.865Z,12.83
2019-03-05T19:58:09.405Z,14.57
2019-03-05T20:01:17.952Z,13.70
2019-03-05T20:04:11.765Z,42.00
2019-03-05T20:06:59.904Z,26.37
2019-03-05T20:09:50.335Z,24.13
2019-03-05T20:12:40.731Z,33.37
2019-03-05T20:15:30.991Z,22.00
2019-03-05T20:18:22.236Z,18.07
2019-03-05T20:21:12.397Z,13.97
2019-03-05T20:24:05.499Z,15.73
2019-03-05T20:26:55.713Z,17.23
2019-03-05T20:29:45.996Z,17.63
2019-03-05T20:32:37.199Z,17.13
2019-03-05T20:35:27.641Z,16.17
2019-03-05T20:38:17.968Z,16.13
2019-03-05T20:41:09.232Z,15.10
2019-03-05T20:43:59.586Z,15.03
2019-03-05T20:46:49.839Z,16.33
2019-03-05T20:49:41.368Z,17.03
2019-03-05T20:52:32.233Z,13.83
2019-03-05T20:55:22.804Z,15.60
2019-03-05T20:58:12.954Z,16.40
2019-03-05T21:01:04.413Z,15.83
2019-03-05T21:03:54.637Z,14.07
2019-03-05T21:06:44.974Z,14.60
2019-03-05T21:09:35.649Z,18.33
2019-03-05T21:12:25.819Z,17.87
2019-03-05T21:15:16.318Z,17.27
2019-03-05T21:18:06.732Z,17.77
2019-03-05T21:20:57.269Z,19.30
2019-03-05T21:23:47.799Z,17.30
2019-03-05T21:26:38.113Z,14.93
2019-03-05T21:29:28.425Z,20.83
2019-03-05T21:32:18.802Z,15.93
2019-03-05T21:35:09.940Z,18.37
2019-03-05T21:38:00.419Z,17.07
2019-03-05T21:40:50.838Z,17.63
2019-03-05T21:43:41.350Z,16.17
2019-03-05T21:46:31.649Z,15.90
2019-03-05T21:49:22.068Z,20.53
2019-03-05T21:52:12.430Z,18.70
2019-03-05T21:55:02.981Z,18.30
2019-03-05T21:57:53.511Z,17.67
2019-03-05T22:00:43.691Z,18.03
2019-03-05T22:03:33.815Z,15.67
2019-03-05T22:06:24.506Z,19.43
2019-03-05T22:09:14.858Z,21.00
2019-03-05T22:12:05.323Z,19.27
2019-03-05T22:14:55.429Z,17.27
2019-03-05T22:17:45.852Z,23.17
2019-03-05T22:20:36.282Z,20.43
2019-03-05T22:23:26.874Z,19.77
2019-03-05T22:26:17.409Z,20.63
2019-03-05T22:29:07.734Z,22.13
2019-03-05T22:31:58.031Z,19.10
2019-03-05T22:34:48.375Z,20.70
2019-03-05T22:37:38.715Z,20.83
2019-03-05T22:40:29.219Z,19.23
2019-03-05T22:43:19.341Z,20.80
2019-03-05T22:46:10.384Z,20.57
2019-03-05T22:49:00.503Z,21.67
2019-03-05T22:51:51.237Z,21.37
2019-03-05T22:54:41.667Z,20.97
2019-03-05T22:57:32.034Z,20.47
2019-03-05T23:01:00.939Z,19.13
2019-03-05T23:04:00.337Z,17.47
2019-03-05T23:06:50.422Z,18.23
2019-03-05T23:09:40.930Z,19.00
2019-03-05T23:12:31.249Z,16.73
2019-03-05T23:15:21.614Z,15.33
2019-03-05T23:18:12.025Z,16.83
2019-03-05T23:21:02.622Z,17.80
2019-03-05T23:23:52.946Z,14.77
2019-03-05T23:26:45.395Z,17.10
2019-03-05T23:29:43.554Z,16.67
2019-03-05T23:32:33.899Z,16.00
2019-03-05T23:35:24.180Z,15.97
2019-03-05T23:38:14.570Z,13.70
2019-03-05T23:41:04.692Z,14.37
2019-03-05T23:43:55.179Z,16.90
2019-03-05T23:46:45.812Z,14.33
2019-03-05T23:49:36.033Z,14.67
2019-03-05T23:52:26.628Z,17.20
2019-03-05T23:55:17.285Z,13.37
2019-03-05T23:58:07.575Z,15.03
